sensor_id;sensor_type;location;lat;lon;timestamp;pressure;altitude;pressure_sealevel;temperature;humidity
55317;BME280;41178;48.956;8.130;2022-11-20T00:02:12;99325.41;;;7.47;52.88
55317;BME280;41178;48.956;8.130;2022-11-20T00:07:13;99324.88;;;7.52;53.67
55317;BME280;41178;48.956;8.130;2022-11-20T00:12:15;99332.31;;;7.88;52.29
55317;BME280;41178;48.956;8.130;2022-11-20T00:17:17;99302.88;;;10.11;48.42
55317;BME280;41178;48.956;8.130;2022-11-20T00:22:19;99356.78;;;9.57;49.60
55317;BME280;41178;48.956;8.130;2022-11-20T00:27:20;99301.81;;;10.69;48.10
55317;BME280;41178;48.956;8.130;2022-11-20T00:32:22;99356.22;;;9.98;48.77
55317;BME280;41178;48.956;8.130;2022-11-20T00:37:24;99377.81;;;9.30;50.59
55317;BME280;41178;48.956;8.130;2022-11-20T00:42:25;99317.56;;;11.20;47.57
55317;BME280;41178;48.956;8.130;2022-11-20T00:47:27;99350.53;;;11.21;47.10
55317;BME280;41178;48.956;8.130;2022-11-20T00:52:28;99329.13;;;8.16;52.77
55317;BME280;41178;48.956;8.130;2022-11-20T00:57:31;99334.03;;;8.42;53.62
55317;BME280;41178;48.956;8.130;2022-11-20T01:02:32;99268.34;;;7.18;56.99
55317;BME280;41178;48.956;8.130;2022-11-20T01:07:34;99296.56;;;8.05;55.01
55317;BME280;41178;48.956;8.130;2022-11-20T01:12:36;99283.53;;;8.93;53.61
55317;BME280;41178;48.956;8.130;2022-11-20T01:17:37;99286.59;;;9.27;52.55
55317;BME280;41178;48.956;8.130;2022-11-20T01:22:39;99281.72;;;9.15;52.71
55317;BME280;41178;48.956;8.130;2022-11-20T01:27:40;99287.28;;;8.69;53.76
55317;BME280;41178;48.956;8.130;2022-11-20T01:32:42;99293.31;;;8.33;53.59
55317;BME280;41178;48.956;8.130;2022-11-20T01:37:44;99272.66;;;8.95;53.40
55317;BME280;41178;48.956;8.130;2022-11-20T01:42:53;99270.63;;;7.53;55.22
55317;BME280;41178;48.956;8.130;2022-11-20T01:48:19;99248.06;;;7.41;57.00
55317;BME280;41178;48.956;8.130;2022-11-20T01:53:25;99258.50;;;8.64;53.80
55317;BME280;41178;48.956;8.130;2022-11-20T01:58:32;99270.25;;;8.25;53.48
55317;BME280;41178;48.956;8.130;2022-11-20T02:03:35;99274.25;;;8.21;53.89
55317;BME280;41178;48.956;8.130;2022-11-20T02:08:37;99266.09;;;8.23;53.96
55317;BME280;41178;48.956;8.130;2022-11-20T02:13:39;99242.44;;;7.35;55.80
55317;BME280;41178;48.956;8.130;2022-11-20T02:18:45;99250.88;;;7.94;54.60
55317;BME280;41178;48.956;8.130;2022-11-20T02:28:55;99232.75;;;9.23;52.20
55317;BME280;41178;48.956;8.130;2022-11-20T02:33:57;99284.28;;;8.19;53.47
55317;BME280;41178;48.956;8.130;2022-11-20T02:38:59;99257.00;;;9.07;53.01
55317;BME280;41178;48.956;8.130;2022-11-20T02:44:01;99261.13;;;9.09;52.39
55317;BME280;41178;48.956;8.130;2022-11-20T02:49:04;99257.88;;;9.29;52.23
55317;BME280;41178;48.956;8.130;2022-11-20T02:54:06;99275.59;;;8.85;53.00
55317;BME280;41178;48.956;8.130;2022-11-20T02:59:08;99295.47;;;8.97;51.88
55317;BME280;41178;48.956;8.130;2022-11-20T03:04:09;99307.44;;;8.87;52.79
55317;BME280;41178;48.956;8.130;2022-11-20T03:09:11;99290.34;;;8.28;53.98
55317;BME280;41178;48.956;8.130;2022-11-20T03:14:13;99271.16;;;7.95;55.24
55317;BME280;41178;48.956;8.130;2022-11-20T03:19:15;99252.38;;;7.18;56.35
55317;BME280;41178;48.956;8.130;2022-11-20T03:24:17;99238.81;;;8.36;54.89
55317;BME280;41178;48.956;8.130;2022-11-20T03:29:18;99232.91;;;9.00;53.44
55317;BME280;41178;48.956;8.130;2022-11-20T03:34:20;99257.28;;;8.22;55.18
55317;BME280;41178;48.956;8.130;2022-11-20T03:39:22;99258.41;;;8.05;55.37
55317;BME280;41178;48.956;8.130;2022-11-20T03:44:24;99258.66;;;7.49;55.37
55317;BME280;41178;48.956;8.130;2022-11-20T03:49:26;99231.00;;;8.34;55.03
55317;BME280;41178;48.956;8.130;2022-11-20T03:54:28;99222.34;;;8.62;54.28
55317;BME280;41178;48.956;8.130;2022-11-20T03:59:29;99244.91;;;8.06;55.43
55317;BME280;41178;48.956;8.130;2022-11-20T04:04:31;99240.00;;;8.33;54.43
55317;BME280;41178;48.956;8.130;2022-11-20T04:09:33;99245.25;;;7.19;55.34
55317;BME280;41178;48.956;8.130;2022-11-20T04:14:34;99249.63;;;7.58;56.11
55317;BME280;41178;48.956;8.130;2022-11-20T04:19:36;99214.88;;;8.72;54.25
55317;BME280;41178;48.956;8.130;2022-11-20T04:24:37;99239.56;;;8.59;53.40
55317;BME280;41178;48.956;8.130;2022-11-20T04:29:39;99211.19;;;9.03;52.70
55317;BME280;41178;48.956;8.130;2022-11-20T04:34:41;99238.66;;;7.99;54.73
55317;BME280;41178;48.956;8.130;2022-11-20T04:39:42;99267.28;;;8.20;53.43
55317;BME280;41178;48.956;8.130;2022-11-20T04:44:44;99258.00;;;8.31;53.92
55317;BME280;41178;48.956;8.130;2022-11-20T04:49:45;99249.13;;;8.39;53.62
55317;BME280;41178;48.956;8.130;2022-11-20T04:54:47;99231.34;;;8.76;53.43
55317;BME280;41178;48.956;8.130;2022-11-20T04:59:49;99242.09;;;6.84;55.58
55317;BME280;41178;48.956;8.130;2022-11-20T05:04:51;99253.41;;;8.10;53.91
55317;BME280;41178;48.956;8.130;2022-11-20T05:09:52;99271.94;;;8.03;53.80
55317;BME280;41178;48.956;8.130;2022-11-20T05:14:54;99246.78;;;8.65;52.82
55317;BME280;41178;48.956;8.130;2022-11-20T05:19:55;99238.78;;;8.80;52.94
55317;BME280;41178;48.956;8.130;2022-11-20T05:24:57;99242.75;;;8.55;53.70
55317;BME280;41178;48.956;8.130;2022-11-20T05:29:59;99235.13;;;8.66;53.43
55317;BME280;41178;48.956;8.130;2022-11-20T05:35:00;99254.44;;;8.39;53.92
55317;BME280;41178;48.956;8.130;2022-11-20T05:40:02;99243.38;;;9.01;52.54
55317;BME280;41178;48.956;8.130;2022-11-20T05:45:04;99271.06;;;7.88;54.21
55317;BME280;41178;48.956;8.130;2022-11-20T05:50:07;99235.53;;;7.96;55.49
55317;BME280;41178;48.956;8.130;2022-11-20T05:55:09;99196.19;;;9.24;53.14
55317;BME280;41178;48.956;8.130;2022-11-20T06:00:11;99212.72;;;8.82;53.64
55317;BME280;41178;48.956;8.130;2022-11-20T06:05:13;99207.69;;;9.67;52.26
55317;BME280;41178;48.956;8.130;2022-11-20T06:10:14;99270.41;;;7.86;54.94
55317;BME280;41178;48.956;8.130;2022-11-20T06:15:16;99222.78;;;8.95;53.63
55317;BME280;41178;48.956;8.130;2022-11-20T06:20:18;99269.69;;;7.69;55.01
55317;BME280;41178;48.956;8.130;2022-11-20T06:25:19;99262.69;;;8.59;53.66
55317;BME280;41178;48.956;8.130;2022-11-20T06:30:21;99231.19;;;9.14;53.04
55317;BME280;41178;48.956;8.130;2022-11-20T06:35:22;99269.19;;;8.11;54.63
55317;BME280;41178;48.956;8.130;2022-11-20T06:40:24;99284.88;;;7.91;54.32
55317;BME280;41178;48.956;8.130;2022-11-20T06:45:26;99276.25;;;7.81;55.27
55317;BME280;41178;48.956;8.130;2022-11-20T06:50:28;99224.53;;;9.03;53.36
55317;BME280;41178;48.956;8.130;2022-11-20T06:55:30;99253.44;;;8.55;54.29
55317;BME280;41178;48.956;8.130;2022-11-20T07:00:32;99279.53;;;8.29;53.61
55317;BME280;41178;48.956;8.130;2022-11-20T07:05:34;99248.47;;;8.96;54.08
55317;BME280;41178;48.956;8.130;2022-11-20T07:10:36;99306.28;;;7.44;55.14
55317;BME280;41178;48.956;8.130;2022-11-20T07:15:38;99278.44;;;8.83;53.84
55317;BME280;41178;48.956;8.130;2022-11-20T07:20:40;99253.94;;;9.46;52.61
55317;BME280;41178;48.956;8.130;2022-11-20T07:25:41;99305.03;;;8.09;54.42
55317;BME280;41178;48.956;8.130;2022-11-20T07:30:49;99280.56;;;8.58;54.45
55317;BME280;41178;48.956;8.130;2022-11-20T07:35:51;99305.00;;;8.62;53.33
55317;BME280;41178;48.956;8.130;2022-11-20T07:40:56;99299.56;;;8.40;55.26
55317;BME280;41178;48.956;8.130;2022-11-20T07:45:59;99312.47;;;8.81;54.20
55317;BME280;41178;48.956;8.130;2022-11-20T07:51:01;99287.00;;;9.45;52.85
55317;BME280;41178;48.956;8.130;2022-11-20T07:56:03;99303.25;;;8.84;54.61
55317;BME280;41178;48.956;8.130;2022-11-20T08:01:06;99320.03;;;7.87;56.42
55317;BME280;41178;48.956;8.130;2022-11-20T08:06:08;99284.31;;;8.64;55.03
55317;BME280;41178;48.956;8.130;2022-11-20T08:11:10;99304.91;;;8.55;55.68
55317;BME280;41178;48.956;8.130;2022-11-20T08:16:30;99306.03;;;8.61;54.78
55317;BME280;41178;48.956;8.130;2022-11-20T08:21:32;99282.22;;;9.40;53.71
55317;BME280;41178;48.956;8.130;2022-11-20T08:26:39;99312.66;;;8.80;54.58
55317;BME280;41178;48.956;8.130;2022-11-20T08:31:41;99313.44;;;8.89;55.38
55317;BME280;41178;48.956;8.130;2022-11-20T08:36:43;99345.13;;;8.16;56.31
55317;BME280;41178;48.956;8.130;2022-11-20T08:41:44;99343.97;;;8.33;56.11
55317;BME280;41178;48.956;8.130;2022-11-20T08:46:46;99309.34;;;9.59;53.34
55317;BME280;41178;48.956;8.130;2022-11-20T08:51:48;99370.91;;;8.38;55.95
55317;BME280;41178;48.956;8.130;2022-11-20T08:56:53;99364.88;;;7.98;57.87
55317;BME280;41178;48.956;8.130;2022-11-20T09:01:54;99307.44;;;9.74;53.51
55317;BME280;41178;48.956;8.130;2022-11-20T09:06:56;99363.78;;;8.16;57.50
55317;BME280;41178;48.956;8.130;2022-11-20T09:11:58;99311.22;;;10.02;53.71
55317;BME280;41178;48.956;8.130;2022-11-20T09:16:59;99394.13;;;9.20;55.25
55317;BME280;41178;48.956;8.130;2022-11-20T09:22:01;99399.84;;;8.26;55.53
55317;BME280;41178;48.956;8.130;2022-11-20T09:27:04;99373.84;;;9.26;55.39
55317;BME280;41178;48.956;8.130;2022-11-20T09:32:06;99352.47;;;9.92;53.80
55317;BME280;41178;48.956;8.130;2022-11-20T09:37:07;99336.06;;;9.81;55.77
55317;BME280;41178;48.956;8.130;2022-11-20T09:42:14;99364.59;;;10.17;53.69
55317;BME280;41178;48.956;8.130;2022-11-20T09:47:53;99410.47;;;9.62;54.31
55317;BME280;41178;48.956;8.130;2022-11-20T09:58:51;99408.91;;;9.53;55.33
55317;BME280;41178;48.956;8.130;2022-11-20T10:04:15;99417.88;;;9.45;55.01
55317;BME280;41178;48.956;8.130;2022-11-20T10:09:27;99383.53;;;10.93;51.87
55317;BME280;41178;48.956;8.130;2022-11-20T10:19:51;99407.94;;;10.12;54.14
55317;BME280;41178;48.956;8.130;2022-11-20T10:25:18;99381.66;;;10.37;53.02
55317;BME280;41178;48.956;8.130;2022-11-20T10:30:21;99436.44;;;9.68;53.90
55317;BME280;41178;48.956;8.130;2022-11-20T10:35:36;99389.91;;;11.34;50.94
55317;BME280;41178;48.956;8.130;2022-11-20T10:40:49;99391.47;;;10.80;51.54
55317;BME280;41178;48.956;8.130;2022-11-20T10:46:38;99400.81;;;10.91;50.86
55317;BME280;41178;48.956;8.130;2022-11-20T10:52:19;99413.03;;;10.50;52.04
55317;BME280;41178;48.956;8.130;2022-11-20T11:11:27;99321.91;;;7.15;58.22
55317;BME280;41178;48.956;8.130;2022-11-20T11:16:29;99321.72;;;8.03;57.50
55317;BME280;41178;48.956;8.130;2022-11-20T11:21:31;99314.75;;;8.02;56.23
55317;BME280;41178;48.956;8.130;2022-11-20T11:26:32;99330.06;;;7.77;56.15
55317;BME280;41178;48.956;8.130;2022-11-20T11:31:35;99329.34;;;7.83;55.06
55317;BME280;41178;48.956;8.130;2022-11-20T11:36:36;99292.31;;;9.24;53.84
55317;BME280;41178;48.956;8.130;2022-11-20T11:41:39;99333.94;;;8.20;54.41
55317;BME280;41178;48.956;8.130;2022-11-20T11:46:52;99311.91;;;8.56;53.76
55317;BME280;41178;48.956;8.130;2022-11-20T11:52:17;99329.53;;;8.27;52.75
55317;BME280;41178;48.956;8.130;2022-11-20T12:07:42;99303.00;;;9.24;50.46
55317;BME280;41178;48.956;8.130;2022-11-20T12:12:52;99322.50;;;9.61;50.41
55317;BME280;41178;48.956;8.130;2022-11-20T12:17:56;99339.84;;;8.07;51.34
55317;BME280;41178;48.956;8.130;2022-11-20T12:23:22;99345.31;;;8.67;50.21
55317;BME280;41178;48.956;8.130;2022-11-20T12:49:56;99343.69;;;9.11;49.18
55317;BME280;41178;48.956;8.130;2022-11-20T12:55:28;99341.78;;;9.05;48.23
55317;BME280;41178;48.956;8.130;2022-11-20T13:00:33;99344.94;;;9.30;47.43
55317;BME280;41178;48.956;8.130;2022-11-20T13:21:17;99382.59;;;8.37;48.69
55317;BME280;41178;48.956;8.130;2022-11-20T13:26:22;99378.72;;;8.02;48.16
55317;BME280;41178;48.956;8.130;2022-11-20T13:31:31;99363.16;;;8.81;48.05
55317;BME280;41178;48.956;8.130;2022-11-20T13:36:33;99355.22;;;8.96;47.59
55317;BME280;41178;48.956;8.130;2022-11-20T13:41:38;99372.00;;;8.82;47.76
55317;BME280;41178;48.956;8.130;2022-11-20T13:46:43;99375.53;;;8.44;47.89
55317;BME280;41178;48.956;8.130;2022-11-20T13:51:50;99374.09;;;8.19;47.24
55317;BME280;41178;48.956;8.130;2022-11-20T13:57:16;99373.91;;;8.20;47.87
55317;BME280;41178;48.956;8.130;2022-11-20T14:02:25;99362.41;;;8.20;47.70
55317;BME280;41178;48.956;8.130;2022-11-20T14:07:48;99355.91;;;7.99;47.82
55317;BME280;41178;48.956;8.130;2022-11-20T14:12:51;99354.44;;;7.97;48.07
55317;BME280;41178;48.956;8.130;2022-11-20T14:17:53;99329.59;;;7.42;48.66
55317;BME280;41178;48.956;8.130;2022-11-20T14:22:55;99329.63;;;8.34;47.97
55317;BME280;41178;48.956;8.130;2022-11-20T14:27:59;99305.78;;;8.56;47.67
55317;BME280;41178;48.956;8.130;2022-11-20T14:33:02;99316.16;;;7.66;48.92
55317;BME280;41178;48.956;8.130;2022-11-20T14:38:11;99306.41;;;7.50;48.46
55317;BME280;41178;48.956;8.130;2022-11-20T14:48:26;99292.03;;;7.36;49.19
55317;BME280;41178;48.956;8.130;2022-11-20T14:53:29;99294.44;;;8.01;48.56
55317;BME280;41178;48.956;8.130;2022-11-20T14:58:33;99273.84;;;7.95;49.05
55317;BME280;41178;48.956;8.130;2022-11-20T15:03:37;99267.25;;;8.05;48.27
55317;BME280;41178;48.956;8.130;2022-11-20T15:08:50;99258.16;;;8.15;48.26
55317;BME280;41178;48.956;8.130;2022-11-20T15:13:52;99257.22;;;8.45;48.27
55317;BME280;41178;48.956;8.130;2022-11-20T15:18:54;99286.97;;;7.73;48.51
55317;BME280;41178;48.956;8.130;2022-11-20T15:23:56;99272.44;;;8.37;48.01
55317;BME280;41178;48.956;8.130;2022-11-20T15:28:58;99269.00;;;8.13;48.50
55317;BME280;41178;48.956;8.130;2022-11-20T15:34:00;99252.63;;;8.69;47.89
55317;BME280;41178;48.956;8.130;2022-11-20T15:39:02;99273.97;;;7.78;48.38
55317;BME280;41178;48.956;8.130;2022-11-20T15:44:04;99276.25;;;8.04;48.30
55317;BME280;41178;48.956;8.130;2022-11-20T15:49:11;99267.41;;;7.89;48.46
55317;BME280;41178;48.956;8.130;2022-11-20T15:54:16;99237.06;;;8.58;48.22
55317;BME280;41178;48.956;8.130;2022-11-20T15:59:19;99261.66;;;8.00;49.17
55317;BME280;41178;48.956;8.130;2022-11-20T16:04:22;99241.03;;;7.94;48.31
55317;BME280;41178;48.956;8.130;2022-11-20T16:09:24;99230.34;;;8.62;48.19
55317;BME280;41178;48.956;8.130;2022-11-20T16:14:26;99240.44;;;8.07;48.72
55317;BME280;41178;48.956;8.130;2022-11-20T16:19:46;99225.75;;;7.18;49.84
55317;BME280;41178;48.956;8.130;2022-11-20T16:24:48;99214.06;;;8.42;48.15
55317;BME280;41178;48.956;8.130;2022-11-20T16:29:50;99207.50;;;8.00;48.87
55317;BME280;41178;48.956;8.130;2022-11-20T16:34:52;99199.50;;;7.85;48.95
55317;BME280;41178;48.956;8.130;2022-11-20T16:39:54;99189.50;;;7.87;49.06
55317;BME280;41178;48.956;8.130;2022-11-20T16:44:57;99175.28;;;8.09;47.76
55317;BME280;41178;48.956;8.130;2022-11-20T16:50:00;99173.91;;;7.99;48.49
55317;BME280;41178;48.956;8.130;2022-11-20T16:55:02;99178.56;;;8.11;48.00
55317;BME280;41178;48.956;8.130;2022-11-20T17:00:06;99182.31;;;7.64;49.44
55317;BME280;41178;48.956;8.130;2022-11-20T17:05:08;99149.25;;;6.58;51.56
55317;BME280;41178;48.956;8.130;2022-11-20T17:10:10;99152.34;;;7.47;50.64
55317;BME280;41178;48.956;8.130;2022-11-20T17:15:12;99112.13;;;6.02;52.36
55317;BME280;41178;48.956;8.130;2022-11-20T17:20:13;99113.28;;;7.48;50.51
55317;BME280;41178;48.956;8.130;2022-11-20T17:25:15;99121.09;;;7.26;50.91
55317;BME280;41178;48.956;8.130;2022-11-20T17:30:17;99082.03;;;8.46;49.09
55317;BME280;41178;48.956;8.130;2022-11-20T17:35:19;99122.63;;;7.97;49.33
55317;BME280;41178;48.956;8.130;2022-11-20T17:40:22;99116.31;;;7.74;50.82
55317;BME280;41178;48.956;8.130;2022-11-20T17:45:28;99073.72;;;8.92;49.67
55317;BME280;41178;48.956;8.130;2022-11-20T17:50:29;99100.75;;;8.16;51.38
55317;BME280;41178;48.956;8.130;2022-11-20T17:55:31;99088.47;;;6.23;53.98
55317;BME280;41178;48.956;8.130;2022-11-20T18:01:03;99089.41;;;7.54;52.73
55317;BME280;41178;48.956;8.130;2022-11-20T18:06:12;99095.97;;;7.82;52.80
55317;BME280;41178;48.956;8.130;2022-11-20T18:11:15;99074.09;;;6.41;55.45
55317;BME280;41178;48.956;8.130;2022-11-20T18:16:17;99076.44;;;6.67;55.79
55317;BME280;41178;48.956;8.130;2022-11-20T18:21:18;99059.50;;;6.37;56.08
55317;BME280;41178;48.956;8.130;2022-11-20T18:26:20;99039.09;;;6.60;55.98
55317;BME280;41178;48.956;8.130;2022-11-20T18:31:22;99038.06;;;6.61;55.68
55317;BME280;41178;48.956;8.130;2022-11-20T18:36:26;99022.78;;;7.10;55.82
55317;BME280;41178;48.956;8.130;2022-11-20T18:41:29;99002.69;;;6.15;57.72
55317;BME280;41178;48.956;8.130;2022-11-20T18:46:50;98985.28;;;6.35;57.15
55317;BME280;41178;48.956;8.130;2022-11-20T18:51:52;98977.69;;;6.24;56.94
55317;BME280;41178;48.956;8.130;2022-11-20T18:56:54;98960.81;;;6.86;56.10
55317;BME280;41178;48.956;8.130;2022-11-20T19:01:55;98966.25;;;6.70;56.45
55317;BME280;41178;48.956;8.130;2022-11-20T19:06:57;98948.16;;;6.88;56.18
55317;BME280;41178;48.956;8.130;2022-11-20T19:12:03;98942.16;;;7.09;56.42
55317;BME280;41178;48.956;8.130;2022-11-20T19:17:05;98964.03;;;6.73;57.15
55317;BME280;41178;48.956;8.130;2022-11-20T19:22:07;98928.22;;;7.07;56.57
55317;BME280;41178;48.956;8.130;2022-11-20T19:27:09;98949.00;;;6.89;56.55
55317;BME280;41178;48.956;8.130;2022-11-20T19:32:11;98939.75;;;6.15;57.55
55317;BME280;41178;48.956;8.130;2022-11-20T19:37:13;98938.06;;;6.14;57.91
55317;BME280;41178;48.956;8.130;2022-11-20T19:42:14;98944.66;;;5.95;58.08
55317;BME280;41178;48.956;8.130;2022-11-20T19:47:16;98936.09;;;6.16;58.10
55317;BME280;41178;48.956;8.130;2022-11-20T19:52:18;98907.97;;;6.83;57.08
55317;BME280;41178;48.956;8.130;2022-11-20T19:57:19;98909.34;;;6.18;58.65
55317;BME280;41178;48.956;8.130;2022-11-20T20:02:21;98914.47;;;5.96;58.98
55317;BME280;41178;48.956;8.130;2022-11-20T20:07:22;98917.03;;;6.13;57.94
55317;BME280;41178;48.956;8.130;2022-11-20T20:12:24;98893.97;;;4.29;61.65
55317;BME280;41178;48.956;8.130;2022-11-20T20:17:26;98913.41;;;6.52;58.02
55317;BME280;41178;48.956;8.130;2022-11-20T20:22:27;98925.06;;;6.89;56.69
55317;BME280;41178;48.956;8.130;2022-11-20T20:27:30;98923.41;;;7.47;55.50
55317;BME280;41178;48.956;8.130;2022-11-20T20:32:33;98984.16;;;6.53;56.33
55317;BME280;41178;48.956;8.130;2022-11-20T20:37:35;98950.84;;;6.42;58.02
55317;BME280;41178;48.956;8.130;2022-11-20T20:42:36;98939.00;;;7.21;55.56
55317;BME280;41178;48.956;8.130;2022-11-20T20:47:39;98985.13;;;6.60;56.36
55317;BME280;41178;48.956;8.130;2022-11-20T20:52:42;98940.41;;;7.61;54.90
55317;BME280;41178;48.956;8.130;2022-11-20T20:57:44;99009.72;;;6.31;56.64
55317;BME280;41178;48.956;8.130;2022-11-20T21:02:45;99016.03;;;6.30;57.39
55317;BME280;41178;48.956;8.130;2022-11-20T21:07:47;98999.97;;;6.46;57.37
55317;BME280;41178;48.956;8.130;2022-11-20T21:13:07;98966.75;;;7.26;55.63
55317;BME280;41178;48.956;8.130;2022-11-20T21:18:08;98971.03;;;6.97;56.44
55317;BME280;41178;48.956;8.130;2022-11-20T21:23:10;98998.84;;;5.05;59.09
55317;BME280;41178;48.956;8.130;2022-11-20T21:28:12;99008.72;;;6.32;57.47
55317;BME280;41178;48.956;8.130;2022-11-20T21:33:18;98974.97;;;7.02;56.91
55317;BME280;41178;48.956;8.130;2022-11-20T21:38:20;98969.94;;;7.22;56.36
55317;BME280;41178;48.956;8.130;2022-11-20T21:43:21;98978.56;;;7.24;55.85
55317;BME280;41178;48.956;8.130;2022-11-20T21:48:27;98972.22;;;7.99;54.48
55317;BME280;41178;48.956;8.130;2022-11-20T21:53:29;98996.53;;;8.11;53.82
55317;BME280;41178;48.956;8.130;2022-11-20T21:58:33;99039.06;;;7.30;54.99
55317;BME280;41178;48.956;8.130;2022-11-20T22:03:36;99004.22;;;7.84;54.39
55317;BME280;41178;48.956;8.130;2022-11-20T22:08:37;99057.56;;;5.91;57.98
55317;BME280;41178;48.956;8.130;2022-11-20T22:13:40;99027.25;;;7.62;55.15
55317;BME280;41178;48.956;8.130;2022-11-20T22:19:00;99028.09;;;7.48;55.16
55317;BME280;41178;48.956;8.130;2022-11-20T22:24:02;99004.91;;;8.08;54.40
55317;BME280;41178;48.956;8.130;2022-11-20T22:29:03;99056.25;;;6.81;55.94
55317;BME280;41178;48.956;8.130;2022-11-20T22:34:05;99046.38;;;6.04;58.52
55317;BME280;41178;48.956;8.130;2022-11-20T22:39:07;99036.66;;;6.19;58.49
55317;BME280;41178;48.956;8.130;2022-11-20T22:44:12;98989.00;;;6.95;57.61
55317;BME280;41178;48.956;8.130;2022-11-20T22:49:14;99001.72;;;5.68;60.47
55317;BME280;41178;48.956;8.130;2022-11-20T22:54:16;99011.69;;;5.58;60.63
55317;BME280;41178;48.956;8.130;2022-11-20T22:59:17;99018.41;;;6.24;58.66
55317;BME280;41178;48.956;8.130;2022-11-20T23:04:19;98965.28;;;7.53;56.99
55317;BME280;41178;48.956;8.130;2022-11-20T23:09:21;98975.63;;;7.18;56.11
55317;BME280;41178;48.956;8.130;2022-11-20T23:14:22;99007.94;;;7.30;56.37
55317;BME280;41178;48.956;8.130;2022-11-20T23:19:28;99009.00;;;7.06;56.92
55317;BME280;41178;48.956;8.130;2022-11-20T23:24:30;98993.41;;;7.03;58.24
55317;BME280;41178;48.956;8.130;2022-11-20T23:29:31;98986.34;;;7.10;57.87
55317;BME280;41178;48.956;8.130;2022-11-20T23:34:33;99028.94;;;5.62;60.30
55317;BME280;41178;48.956;8.130;2022-11-20T23:39:34;99018.78;;;6.13;59.50
55317;BME280;41178;48.956;8.130;2022-11-20T23:44:36;98971.22;;;7.11;58.00
55317;BME280;41178;48.956;8.130;2022-11-20T23:49:38;98955.25;;;8.00;56.47
55317;BME280;41178;48.956;8.130;2022-11-20T23:54:39;98969.97;;;7.36;56.97
55317;BME280;41178;48.956;8.130;2022-11-20T23:59:41;98995.72;;;7.06;57.19
